Time;durP1;ratioP1;P1;durP2;ratioP2;P2;SDS_P1;SDS_P2;PMS_P1;PMS_P2;Temp;Humidity;BMP_temperature;BMP_pressure;BME280_temperature;BME280_humidity;BME280_pressure;Samples;Min_cycle;Max_cycle;Signal;HPM_P1;HPM_P2
2023/05/30 03:01:35;;;;;;;8.32;3.38;;;22.50;38.40;;;;;;5407559;23;46258;-64
2023/05/30 03:04:01;;;;;;;6.50;3.63;;;22.50;38.50;;;;;;4942159;28;46476;-61
2023/05/30 03:06:27;;;;;;;9.00;4.25;;;22.50;38.50;;;;;;4912114;28;45830;-61
2023/05/30 03:08:59;;;;;;;7.72;3.80;;;22.40;38.50;;;;;;4950339;28;45008;-62
2023/05/30 03:11:25;;;;;;;7.90;4.30;;;22.50;38.50;;;;;;4934816;28;44906;-62
2023/05/30 03:13:51;;;;;;;9.13;4.18;;;22.30;38.50;;;;;;4938719;28;45891;-62
2023/05/30 03:16:17;;;;;;;9.15;3.90;;;22.40;38.50;;;;;;4942264;28;45410;-62
2023/05/30 03:18:42;;;;;;;8.15;2.90;;;22.30;38.50;;;;;;4950087;28;44987;-62
2023/05/30 03:21:09;;;;;;;8.38;3.45;;;22.30;38.40;;;;;;4940077;28;45506;-61
2023/05/30 03:23:34;;;;;;;6.88;3.10;;;22.30;38.40;;;;;;4918934;28;46233;-61
2023/05/30 03:26:01;;;;;;;6.13;2.92;;;22.30;38.50;;;;;;4947169;28;44849;-62
2023/05/30 03:28:26;;;;;;;5.45;2.80;;;22.30;38.50;;;;;;4948279;28;45448;-62
2023/05/30 03:30:55;;;;;;;7.75;2.78;;;22.30;38.40;;;;;;4936723;28;45320;-67
2023/05/30 03:33:22;;;;;;;5.00;2.63;;;22.30;38.40;;;;;;4936256;28;46140;-63
2023/05/30 03:35:48;;;;;;;4.65;2.80;;;22.30;38.50;;;;;;4938459;28;45458;-63
2023/05/30 03:38:13;;;;;;;7.20;2.80;;;22.20;38.50;;;;;;4939743;28;45460;-62
2023/05/30 03:40:39;;;;;;;7.05;2.67;;;22.30;38.60;;;;;;4931444;28;46647;-62
2023/05/30 03:43:04;;;;;;;5.38;2.40;;;22.20;38.60;;;;;;4941742;28;46014;-61
2023/05/30 03:45:30;;;;;;;4.80;2.22;;;22.20;38.60;;;;;;4933674;28;45282;-63
2023/05/30 03:47:56;;;;;;;4.10;2.42;;;22.20;38.70;;;;;;4949352;28;45426;-62
2023/05/30 03:50:21;;;;;;;4.25;2.45;;;22.20;38.80;;;;;;4942627;28;45013;-63
2023/05/30 03:52:47;;;;;;;8.25;2.35;;;22.20;38.70;;;;;;4932964;28;45053;-63
2023/05/30 03:55:13;;;;;;;4.93;2.50;;;22.20;38.80;;;;;;4927212;28;45203;-64
2023/05/30 03:57:38;;;;;;;3.75;2.15;;;22.20;38.90;;;;;;4931414;28;45488;-62
2023/05/30 04:00:04;;;;;;;3.88;2.20;;;22.10;38.90;;;;;;4948089;28;45222;-63
2023/05/30 04:02:30;;;;;;;4.80;1.85;;;22.10;38.90;;;;;;4923144;28;45986;-62
2023/05/30 04:04:55;;;;;;;5.55;2.20;;;22.10;39.00;;;;;;4938343;28;45062;-63
2023/05/30 04:07:21;;;;;;;5.13;2.60;;;22.00;39.00;;;;;;4948235;28;45440;-61
2023/05/30 04:09:47;;;;;;;4.82;2.10;;;22.00;39.00;;;;;;4946569;28;45546;-62
2023/05/30 04:12:12;;;;;;;6.38;1.98;;;22.00;39.00;;;;;;4933443;28;45322;-62
2023/05/30 04:14:38;;;;;;;5.57;3.20;;;22.00;39.10;;;;;;4936159;28;45112;-62
2023/05/30 04:17:04;;;;;;;6.63;2.97;;;22.00;39.10;;;;;;4928919;28;45102;-63
2023/05/30 04:19:29;;;;;;;4.35;2.58;;;22.00;39.20;;;;;;4904387;28;45379;-64
2023/05/30 04:21:55;;;;;;;5.75;2.58;;;22.00;39.20;;;;;;4908490;28;45006;-64
2023/05/30 04:24:21;;;;;;;6.35;3.05;;;21.90;39.20;;;;;;4921600;28;45445;-62
2023/05/30 04:26:48;;;;;;;6.78;2.38;;;22.00;39.20;;;;;;4939152;28;45337;-64
2023/05/30 04:29:14;;;;;;;5.50;2.65;;;22.00;39.20;;;;;;4940849;28;45171;-63
2023/05/30 04:31:40;;;;;;;6.38;2.70;;;22.00;39.20;;;;;;4931467;28;46178;-62
2023/05/30 04:34:05;;;;;;;6.63;2.42;;;22.00;39.30;;;;;;4937032;28;45560;-63
2023/05/30 04:36:36;;;;;;;4.60;2.33;;;22.00;39.40;;;;;;4917379;28;45648;-64
2023/05/30 04:39:02;;;;;;;5.65;2.83;;;22.00;39.40;;;;;;4934389;28;45353;-63
2023/05/30 04:41:28;;;;;;;5.85;2.70;;;22.00;39.40;;;;;;4940325;28;46127;-64
2023/05/30 04:43:54;;;;;;;7.82;2.47;;;21.90;39.40;;;;;;4946336;28;45515;-63
2023/05/30 04:46:23;;;;;;;4.15;2.10;;;21.90;39.50;;;;;;4939291;28;45269;-63
2023/05/30 04:48:53;;;;;;;3.03;1.85;;;22.00;39.60;;;;;;4940235;28;45036;-64
2023/05/30 04:51:22;;;;;;;8.95;2.50;;;21.90;39.60;;;;;;4952715;28;45950;-64
2023/05/30 04:53:48;;;;;;;5.57;2.30;;;21.90;39.60;;;;;;4922011;28;44771;-63
2023/05/30 04:56:13;;;;;;;7.55;2.20;;;21.90;39.60;;;;;;4952189;28;45114;-64
2023/05/30 04:58:39;;;;;;;8.65;2.85;;;21.90;39.60;;;;;;4935437;28;45632;-65
2023/05/30 05:01:09;;;;;;;4.47;2.15;;;21.90;39.70;;;;;;4920113;28;46620;-63
2023/05/30 05:03:35;;;;;;;4.53;2.45;;;21.90;39.80;;;;;;4923220;28;45696;-63
2023/05/30 05:06:01;;;;;;;4.65;2.03;;;21.90;39.80;;;;;;4935105;28;45005;-63
2023/05/30 05:08:27;;;;;;;7.10;2.25;;;21.90;39.90;;;;;;4927639;28;45463;-63
2023/05/30 05:10:53;;;;;;;4.63;1.90;;;21.90;39.90;;;;;;4933194;28;46861;-63
2023/05/30 05:13:19;;;;;;;6.43;2.40;;;21.90;40.00;;;;;;4946567;28;47321;-63
2023/05/30 05:15:44;;;;;;;8.90;2.28;;;21.80;40.10;;;;;;4906037;28;45141;-63
2023/05/30 05:18:10;;;;;;;5.15;2.05;;;21.90;40.10;;;;;;4934281;28;45493;-63
2023/05/30 05:20:36;;;;;;;4.70;2.25;;;21.80;40.20;;;;;;4941624;28;45592;-63
2023/05/30 05:23:02;;;;;;;4.97;2.25;;;21.90;40.30;;;;;;4937676;28;44715;-63
2023/05/30 05:25:27;;;;;;;5.28;2.03;;;21.90;40.20;;;;;;4933688;28;45261;-64
2023/05/30 05:27:53;;;;;;;7.25;1.95;;;21.80;40.30;;;;;;4944435;28;45050;-64
2023/05/30 05:30:19;;;;;;;4.95;1.77;;;21.80;40.30;;;;;;4932165;28;45978;-64
2023/05/30 05:32:45;;;;;;;5.70;2.05;;;21.90;40.40;;;;;;4938794;28;45862;-63
2023/05/30 05:35:11;;;;;;;6.47;2.10;;;21.80;40.30;;;;;;4941361;28;45219;-66
2023/05/30 05:37:36;;;;;;;4.35;2.28;;;21.90;40.50;;;;;;4945642;28;45188;-63
2023/05/30 05:40:05;;;;;;;4.10;2.00;;;21.90;40.40;;;;;;4943904;28;47037;-64
2023/05/30 05:42:34;;;;;;;5.00;2.00;;;21.80;40.50;;;;;;4923615;28;45306;-64
2023/05/30 05:45:03;;;;;;;5.07;2.08;;;21.80;40.50;;;;;;4937092;28;45669;-63
2023/05/30 05:47:29;;;;;;;13.52;2.63;;;21.80;40.60;;;;;;4938760;28;45576;-63
2023/05/30 05:49:54;;;;;;;9.82;2.80;;;21.80;40.60;;;;;;4930659;28;45200;-63
2023/05/30 05:52:20;;;;;;;5.25;2.22;;;21.80;40.60;;;;;;4955631;28;44891;-64
2023/05/30 05:54:46;;;;;;;9.77;2.58;;;21.80;40.60;;;;;;4948329;28;45800;-63
2023/05/30 05:57:12;;;;;;;6.25;2.42;;;21.80;40.50;;;;;;4936181;28;47309;-64
2023/05/30 05:59:37;;;;;;;4.03;1.70;;;21.80;40.50;;;;;;4948695;28;44866;-64
2023/05/30 06:02:03;;;;;;;6.38;2.53;;;21.80;40.40;;;;;;4919452;28;45523;-65
2023/05/30 06:04:28;;;;;;;3.28;1.98;;;21.80;40.40;;;;;;4950138;28;45245;-64
2023/05/30 06:06:54;;;;;;;6.57;1.88;;;21.90;40.40;;;;;;4940532;28;45826;-63
2023/05/30 06:09:19;;;;;;;7.18;2.00;;;21.90;40.30;;;;;;4953265;28;47019;-63
2023/05/30 06:11:45;;;;;;;6.03;2.20;;;21.90;40.30;;;;;;4940851;28;45233;-63
2023/05/30 06:14:12;;;;;;;5.60;2.17;;;21.90;40.30;;;;;;4948437;28;45276;-64
2023/05/30 06:16:37;;;;;;;7.05;2.15;;;22.00;40.30;;;;;;4945159;28;45236;-64
2023/05/30 06:19:03;;;;;;;5.65;2.08;;;22.00;40.20;;;;;;4949688;28;45504;-61
2023/05/30 06:21:28;;;;;;;5.95;2.28;;;22.00;40.20;;;;;;4926059;28;45195;-63
2023/05/30 06:23:54;;;;;;;5.38;2.33;;;22.00;40.20;;;;;;4935348;28;45656;-63
2023/05/30 06:26:20;;;;;;;8.82;2.10;;;22.00;40.10;;;;;;4945669;28;45297;-64
2023/05/30 06:28:50;;;;;;;3.30;1.85;;;22.00;40.10;;;;;;4949463;28;45500;-63
2023/05/30 06:31:15;;;;;;;5.70;2.10;;;22.00;40.00;;;;;;4926292;28;45019;-64
2023/05/30 06:33:41;;;;;;;5.88;2.10;;;22.00;39.80;;;;;;4948206;28;45273;-63
2023/05/30 06:36:07;;;;;;;5.40;2.30;;;22.00;39.70;;;;;;4925517;28;45502;-64
2023/05/30 06:38:32;;;;;;;6.68;2.15;;;22.10;39.80;;;;;;4966629;28;45212;-63
2023/05/30 06:40:58;;;;;;;8.63;1.90;;;22.00;39.70;;;;;;4940976;28;44918;-64
2023/05/30 06:43:23;;;;;;;7.57;2.20;;;22.10;39.70;;;;;;4953193;28;45326;-62
2023/05/30 06:45:49;;;;;;;5.07;1.90;;;22.10;39.60;;;;;;4932022;28;45494;-62
2023/05/30 06:48:14;;;;;;;3.95;1.80;;;22.10;39.50;;;;;;4951246;28;45129;-60
2023/05/30 06:50:40;;;;;;;4.13;2.05;;;22.10;39.50;;;;;;4951455;28;45096;-64
2023/05/30 06:53:06;;;;;;;7.22;2.22;;;22.10;39.40;;;;;;4946369;28;45500;-64
2023/05/30 06:55:31;;;;;;;8.00;2.80;;;22.20;39.40;;;;;;4926103;28;46371;-64
2023/05/30 06:57:57;;;;;;;5.22;2.55;;;22.20;39.30;;;;;;4950914;28;45967;-65
2023/05/30 07:00:22;;;;;;;7.95;2.38;;;22.20;39.40;;;;;;4947765;28;44956;-63
2023/05/30 07:02:48;;;;;;;6.10;1.80;;;22.20;39.30;;;;;;4954070;28;45604;-63
2023/05/30 07:05:13;;;;;;;8.10;2.13;;;22.20;39.30;;;;;;4951035;28;47266;-60
2023/05/30 07:07:42;;;;;;;5.95;2.00;;;22.20;39.10;;;;;;4946069;28;45392;-64
2023/05/30 07:10:08;;;;;;;6.53;1.90;;;22.30;39.20;;;;;;4937403;28;45235;-63
2023/05/30 07:12:34;;;;;;;6.35;1.90;;;22.30;39.20;;;;;;4935347;28;45380;-63
2023/05/30 07:15:00;;;;;;;9.32;2.30;;;22.30;39.20;;;;;;4948045;28;45230;-63
2023/05/30 07:17:25;;;;;;;7.47;2.58;;;22.30;39.10;;;;;;4942840;28;47103;-62
2023/05/30 07:19:51;;;;;;;6.95;2.10;;;22.40;39.00;;;;;;4954725;28;45271;-61
2023/05/30 07:22:17;;;;;;;5.43;2.40;;;22.40;39.00;;;;;;4946388;28;45583;-63
2023/05/30 07:24:42;;;;;;;8.23;3.10;;;22.40;38.90;;;;;;4933534;28;45424;-63
2023/05/30 07:27:08;;;;;;;4.95;2.38;;;22.50;39.00;;;;;;4947903;28;46165;-63
2023/05/30 07:29:33;;;;;;;10.15;3.03;;;22.50;39.00;;;;;;4934350;28;45206;-65
2023/05/30 07:31:59;;;;;;;9.27;2.75;;;22.50;38.90;;;;;;4942112;28;45240;-64
2023/05/30 07:34:24;;;;;;;5.88;2.17;;;22.60;39.70;;;;;;4954441;28;45320;-65
2023/05/30 07:36:50;;;;;;;7.95;2.47;;;22.60;39.00;;;;;;4945416;28;47235;-64
2023/05/30 07:39:15;;;;;;;7.05;2.50;;;22.60;38.90;;;;;;4937245;28;45092;-63
2023/05/30 07:41:41;;;;;;;3.88;1.95;;;22.70;39.00;;;;;;4937973;28;45296;-63
2023/05/30 07:44:06;;;;;;;7.55;2.03;;;22.70;39.60;;;;;;4941558;28;45088;-63
2023/05/30 07:46:32;;;;;;;4.72;2.00;;;22.70;38.80;;;;;;4946059;28;45861;-63
2023/05/30 07:48:57;;;;;;;3.63;1.83;;;22.70;38.80;;;;;;4952904;28;45541;-62
2023/05/30 07:51:23;;;;;;;4.93;1.90;;;22.70;38.70;;;;;;4944484;28;45191;-62
2023/05/30 07:53:48;;;;;;;4.78;1.90;;;22.80;38.80;;;;;;4949923;28;44802;-63
2023/05/30 07:56:14;;;;;;;4.90;1.60;;;22.80;38.80;;;;;;4948095;28;46194;-63
2023/05/30 07:58:40;;;;;;;5.90;2.42;;;22.80;38.70;;;;;;4931278;28;45686;-64
2023/05/30 08:01:06;;;;;;;5.07;1.80;;;22.80;38.70;;;;;;4940616;28;44927;-63
2023/05/30 08:03:31;;;;;;;5.30;1.83;;;22.80;38.80;;;;;;4932773;28;45788;-68
2023/05/30 08:05:57;;;;;;;5.40;1.65;;;22.90;38.80;;;;;;4939182;28;45579;-65
2023/05/30 08:08:22;;;;;;;5.55;1.90;;;23.00;38.80;;;;;;4932369;28;45035;-65
2023/05/30 08:10:48;;;;;;;5.50;2.35;;;23.00;38.70;;;;;;4932660;28;45356;-63
2023/05/30 08:13:14;;;;;;;3.97;1.75;;;23.00;38.60;;;;;;4937173;28;45626;-64
2023/05/30 08:15:40;;;;;;;4.60;1.70;;;23.00;38.70;;;;;;4938387;28;46040;-63
2023/05/30 08:18:08;;;;;;;3.70;1.60;;;23.10;38.80;;;;;;4939172;28;45473;-65
2023/05/30 08:20:35;;;;;;;3.45;1.88;;;23.10;38.70;;;;;;4940501;28;45521;-62
2023/05/30 08:23:01;;;;;;;8.43;2.22;;;23.10;38.70;;;;;;4934955;28;46072;-65
2023/05/30 08:25:32;;;;;;;3.50;1.70;;;23.20;38.70;;;;;;4949120;28;45950;-62
2023/05/30 08:28:01;;;;;;;7.03;1.73;;;23.20;38.70;;;;;;4939535;28;45292;-63
2023/05/30 08:30:27;;;;;;;3.45;1.70;;;23.20;38.60;;;;;;4927004;28;45618;-63
2023/05/30 08:32:55;;;;;;;5.38;2.05;;;23.30;38.50;;;;;;4941702;28;45370;-63
2023/05/30 08:35:21;;;;;;;4.28;1.90;;;23.20;38.60;;;;;;4944847;28;46131;-63
2023/05/30 08:37:47;;;;;;;4.95;2.10;;;23.20;38.50;;;;;;4932613;28;45456;-61
2023/05/30 08:40:12;;;;;;;8.05;2.20;;;23.30;38.40;;;;;;4933224;28;45437;-67
2023/05/30 08:42:41;;;;;;;5.82;2.30;;;23.30;38.20;;;;;;4952122;28;45449;-61
2023/05/30 08:45:07;;;;;;;6.22;2.10;;;23.30;38.10;;;;;;4945959;28;45677;-68
2023/05/30 08:47:36;;;;;;;3.75;1.85;;;23.40;38.10;;;;;;4909704;28;45471;-62
2023/05/30 08:50:07;;;;;;;4.40;1.80;;;23.40;38.10;;;;;;4945878;28;44648;-63
2023/05/30 08:52:32;;;;;;;5.55;2.15;;;23.40;38.00;;;;;;4944710;28;45555;-63
2023/05/30 08:55:07;;;;;;;4.32;2.05;;;23.40;37.90;;;;;;4938619;28;45205;-62
2023/05/30 08:57:36;;;;;;;4.07;1.95;;;23.50;37.90;;;;;;4940964;28;45065;-66
2023/05/30 09:00:05;;;;;;;4.38;1.70;;;23.50;37.80;;;;;;4918591;28;45376;-63
2023/05/30 09:02:30;;;;;;;3.40;1.80;;;23.50;37.70;;;;;;4922794;28;45685;-65
2023/05/30 09:04:59;;;;;;;3.45;1.50;;;23.50;37.60;;;;;;4912915;28;45293;-64
2023/05/30 09:07:25;;;;;;;3.97;1.70;;;23.60;37.60;;;;;;4933953;28;45494;-63
2023/05/30 09:09:51;;;;;;;3.72;1.83;;;23.60;37.70;;;;;;4914463;28;44729;-64
2023/05/30 09:12:17;;;;;;;3.28;1.92;;;23.70;37.70;;;;;;4930445;28;45800;-64
2023/05/30 09:14:42;;;;;;;;;;;23.70;37.70;;;;;;4919621;28;46739;-61
2023/05/30 09:17:08;;;;;;;3.53;1.77;;;23.70;37.20;;;;;;4907831;28;45331;-66
2023/05/30 09:19:34;;;;;;;5.97;1.80;;;23.70;37.30;;;;;;4918429;28;45265;-65
2023/05/30 09:22:00;;;;;;;6.72;1.80;;;23.70;37.30;;;;;;4949278;28;44809;-63
2023/05/30 09:24:52;;;;;;;3.10;1.63;;;23.80;37.30;;;;;;4916630;28;45352;-60
2023/05/30 09:27:19;;;;;;;2.65;1.83;;;23.80;36.80;;;;;;4929333;28;45143;-61
2023/05/30 09:29:45;;;;;;;3.15;1.60;;;23.80;36.90;;;;;;4934552;28;45284;-65
2023/05/30 09:32:10;;;;;;;3.13;1.63;;;23.80;36.90;;;;;;4925236;28;45308;-65
2023/05/30 09:34:36;;;;;;;6.40;2.20;;;23.90;36.70;;;;;;4884182;28;45436;-66
2023/05/30 09:37:04;;;;;;;4.82;1.98;;;24.00;36.40;;;;;;4913964;28;45091;-63
2023/05/30 09:39:29;;;;;;;1.88;1.40;;;24.10;36.20;;;;;;4920041;28;44902;-63
2023/05/30 09:41:58;;;;;;;4.10;1.83;;;24.20;36.00;;;;;;4923389;28;45246;-64
2023/05/30 09:44:24;;;;;;;6.40;2.28;;;24.30;35.50;;;;;;4932437;28;45867;-64
2023/05/30 09:46:57;;;;;;;5.07;1.73;;;24.40;35.30;;;;;;4894861;28;45326;-64
2023/05/30 09:49:22;;;;;;;5.20;1.60;;;24.40;35.00;;;;;;4934515;28;45420;-64
2023/05/30 09:51:49;;;;;;;5.20;1.77;;;24.40;35.10;;;;;;4910238;28;45485;-64
2023/05/30 09:54:14;;;;;;;7.45;2.05;;;24.50;35.10;;;;;;4921318;28;47236;-63
2023/05/30 09:56:40;;;;;;;4.55;2.03;;;24.50;34.90;;;;;;4935521;28;44979;-66
2023/05/30 09:59:06;;;;;;;4.47;1.98;;;24.50;34.90;;;;;;4923334;28;44740;-63
2023/05/30 10:01:45;;;;;;;5.47;1.98;;;24.50;34.90;;;;;;4897955;28;46113;-62
2023/05/30 10:04:24;;;;;;;4.30;1.80;;;24.60;34.90;;;;;;4951577;28;46222;-63
2023/05/30 10:06:52;;;;;;;4.05;1.92;;;24.60;34.60;;;;;;4945142;28;46080;-64
2023/05/30 10:09:20;;;;;;;2.97;1.80;;;24.60;34.70;;;;;;4938561;28;45685;-62
2023/05/30 10:11:46;;;;;;;7.00;1.85;;;24.60;34.60;;;;;;4939943;28;45145;-61
2023/05/30 10:14:11;;;;;;;6.97;1.65;;;24.70;34.80;;;;;;4936153;28;46124;-63
2023/05/30 10:16:47;;;;;;;2.63;1.30;;;24.80;34.70;;;;;;4925967;28;45383;-63
2023/05/30 10:19:16;;;;;;;4.70;1.60;;;24.80;34.80;;;;;;4931563;28;45641;-63
2023/05/30 10:21:42;;;;;;;8.85;1.70;;;24.80;34.90;;;;;;4936904;28;45284;-64
2023/05/30 10:24:09;;;;;;;5.85;2.10;;;24.80;34.80;;;;;;4939322;28;45051;-63
2023/05/30 10:26:35;;;;;;;4.93;1.60;;;24.80;34.90;;;;;;4932244;28;44672;-63
2023/05/30 10:29:06;;;;;;;4.13;1.80;;;24.90;34.90;;;;;;4937297;28;45514;-64
2023/05/30 10:31:32;;;;;;;3.45;1.73;;;24.90;35.00;;;;;;4928653;28;44857;-63
2023/05/30 10:33:59;;;;;;;3.38;1.60;;;24.90;34.80;;;;;;4937328;28;45561;-63
2023/05/30 10:36:25;;;;;;;4.78;1.60;;;25.00;34.60;;;;;;4933702;28;45590;-63
2023/05/30 10:39:00;;;;;;;4.28;1.80;;;25.00;34.60;;;;;;4931860;28;45198;-62
2023/05/30 10:41:27;;;;;;;4.45;1.63;;;25.00;34.50;;;;;;4945081;28;45416;-62
2023/05/30 10:44:04;;;;;;;5.15;1.88;;;25.00;34.50;;;;;;4951476;28;46085;-62
2023/05/30 10:46:41;;;;;;;3.97;1.48;;;25.00;34.20;;;;;;4947131;28;45468;-66
2023/05/30 10:49:10;;;;;;;4.20;1.80;;;25.10;34.30;;;;;;4966850;28;45088;-63
2023/05/30 10:51:58;;;;;;;5.32;1.98;;;25.10;34.20;;;;;;4914026;28;45724;-63
2023/05/30 10:54:24;;;;;;;5.18;1.75;;;25.20;34.00;;;;;;4946919;28;46245;-63
2023/05/30 10:56:51;;;;;;;3.38;1.70;;;25.20;34.50;;;;;;4932224;28;45231;-64
2023/05/30 10:59:19;;;;;;;3.80;1.70;;;25.20;34.20;;;;;;4956484;28;45403;-65
2023/05/30 11:02:04;;;;;;;4.72;1.83;;;25.20;33.70;;;;;;4939478;28;45410;-63
2023/05/30 11:04:32;;;;;;;3.28;1.50;;;25.20;32.70;;;;;;4947105;28;45196;-59
2023/05/30 11:06:58;;;;;;;4.88;1.85;;;25.30;33.60;;;;;;4945644;28;45258;-65
2023/05/30 11:09:23;;;;;;;3.08;1.50;;;25.30;33.50;;;;;;4955642;28;45249;-62
2023/05/30 11:11:52;;;;;;;4.97;2.00;;;25.30;33.40;;;;;;4929272;28;45413;-63
2023/05/30 11:14:17;;;;;;;3.30;1.65;;;25.30;33.30;;;;;;4960432;28;46787;-63
2023/05/30 11:17:08;;;;;;;4.07;2.00;;;25.40;33.60;;;;;;4913593;28;45392;-63
2023/05/30 11:19:42;;;;;;;4.20;1.70;;;25.40;32.90;;;;;;4947859;28;44694;-63
2023/05/30 11:22:17;;;;;;;5.25;1.75;;;25.40;33.30;;;;;;4951817;28;44770;-65
2023/05/30 11:24:43;;;;;;;3.67;1.88;;;25.50;33.00;;;;;;4934799;28;44953;-63
2023/05/30 11:27:10;;;;;;;3.00;1.98;;;25.50;33.20;;;;;;4933572;28;45290;-63
2023/05/30 11:29:43;;;;;;;4.78;1.45;;;25.50;33.00;;;;;;4924950;28;45207;-63
2023/05/30 11:32:12;;;;;;;5.72;1.65;;;25.60;32.90;;;;;;4946626;28;45369;-63
2023/05/30 11:34:37;;;;;;;4.55;1.50;;;25.60;32.60;;;;;;4955881;28;45411;-65
2023/05/30 11:37:03;;;;;;;2.92;1.83;;;25.60;32.70;;;;;;4961485;28;45481;-62
2023/05/30 11:39:33;;;;;;;5.78;1.88;;;25.60;32.60;;;;;;4938711;28;45464;-62
2023/05/30 11:42:00;;;;;;;3.03;1.60;;;25.60;32.40;;;;;;4940553;28;45201;-62
2023/05/30 11:44:25;;;;;;;4.00;1.83;;;25.60;32.30;;;;;;4955085;28;47859;-61
2023/05/30 11:47:07;;;;;;;2.78;1.55;;;25.60;32.20;;;;;;4943711;28;45195;-62
2023/05/30 11:49:33;;;;;;;3.58;1.23;;;25.60;31.50;;;;;;4925008;28;44674;-62
2023/05/30 11:51:58;;;;;;;4.78;2.05;;;25.70;31.90;;;;;;4933587;28;45411;-63
2023/05/30 11:54:24;;;;;;;3.20;1.85;;;25.70;32.00;;;;;;4954099;28;45238;-61
2023/05/30 11:56:50;;;;;;;5.97;1.70;;;25.70;32.30;;;;;;4931647;28;45372;-62
2023/05/30 11:59:20;;;;;;;3.97;1.92;;;25.70;32.50;;;;;;4939463;28;45203;-62
2023/05/30 12:01:56;;;;;;;3.63;1.55;;;25.80;32.40;;;;;;4927946;28;45556;-63
2023/05/30 12:04:31;;;;;;;3.53;1.80;;;25.70;32.00;;;;;;4936744;28;45564;-62
2023/05/30 12:07:03;;;;;;;4.18;1.55;;;25.80;32.10;;;;;;4941664;28;45742;-63
2023/05/30 12:09:29;;;;;;;2.63;1.75;;;25.80;32.40;;;;;;4957727;28;45481;-61
2023/05/30 12:11:59;;;;;;;3.35;1.55;;;25.80;32.40;;;;;;4931779;28;45214;-62
2023/05/30 12:14:37;;;;;;;2.88;1.42;;;25.80;31.90;;;;;;4949255;28;46188;-62
2023/05/30 12:17:08;;;;;;;2.88;1.35;;;25.80;31.90;;;;;;4929023;28;45055;-62
2023/05/30 12:19:33;;;;;;;3.10;1.55;;;25.80;31.70;;;;;;4956401;28;45483;-60
2023/05/30 12:21:59;;;;;;;4.00;1.70;;;25.90;31.70;;;;;;4944547;28;45238;-61
2023/05/30 12:24:25;;;;;;;4.22;1.90;;;25.90;31.60;;;;;;4919353;28;45374;-60
2023/05/30 12:26:54;;;;;;;4.18;1.30;;;25.90;31.80;;;;;;4962931;28;45260;-62
2023/05/30 12:29:25;;;;;;;2.67;1.48;;;25.90;31.90;;;;;;4954293;28;45051;-64
2023/05/30 12:31:52;;;;;;;4.40;1.63;;;25.90;31.70;;;;;;4944676;28;45291;-63
2023/05/30 12:34:18;;;;;;;2.92;1.60;;;25.90;31.20;;;;;;4935360;28;46057;-63
2023/05/30 12:36:45;;;;;;;2.50;1.17;;;25.90;30.80;;;;;;4932968;28;45316;-62
2023/05/30 12:39:10;;;;;;;5.00;1.83;;;25.90;31.20;;;;;;4953649;28;45320;-63
2023/05/30 12:41:39;;;;;;;3.95;1.48;;;25.90;30.90;;;;;;4950079;28;45698;-63
2023/05/30 12:44:05;;;;;;;2.25;1.60;;;26.00;30.30;;;;;;4936187;28;46095;-64
2023/05/30 12:46:33;;;;;;;5.05;2.03;;;26.00;30.50;;;;;;4941924;28;45201;-64
2023/05/30 12:48:59;;;;;;;3.40;1.48;;;26.00;30.20;;;;;;4952251;28;45347;-62
2023/05/30 12:51:25;;;;;;;3.60;1.25;;;26.00;30.00;;;;;;4928858;28;45361;-61
2023/05/30 12:53:53;;;;;;;2.83;1.25;;;26.00;30.00;;;;;;4948247;28;46392;-61
2023/05/30 12:56:19;;;;;;;3.70;1.65;;;26.10;29.90;;;;;;4928716;28;45268;-64
2023/05/30 12:58:44;;;;;;;4.72;1.80;;;26.10;29.70;;;;;;4952183;28;45209;-64
2023/05/30 13:01:10;;;;;;;5.63;1.83;;;26.10;29.60;;;;;;4920901;28;45319;-64
2023/05/30 13:03:36;;;;;;;2.55;1.60;;;26.10;29.50;;;;;;4945023;28;45986;-63
2023/05/30 13:06:02;;;;;;;2.75;1.50;;;26.10;29.50;;;;;;4926859;28;46574;-64
2023/05/30 13:08:27;;;;;;;4.70;1.75;;;26.10;29.30;;;;;;4948700;28;44920;-63
2023/05/30 13:10:53;;;;;;;3.63;1.60;;;26.10;29.30;;;;;;4928132;28;45398;-63
2023/05/30 13:13:18;;;;;;;5.70;2.05;;;26.10;29.30;;;;;;4929111;28;45523;-63
2023/05/30 13:15:44;;;;;;;4.03;1.70;;;26.10;29.30;;;;;;4928093;28;44731;-63
2023/05/30 13:18:10;;;;;;;4.18;1.23;;;26.10;29.40;;;;;;4955367;28;45800;-64
2023/05/30 13:20:35;;;;;;;2.58;1.67;;;26.10;29.40;;;;;;4949478;28;44703;-61
2023/05/30 13:23:01;;;;;;;4.85;1.58;;;26.10;29.40;;;;;;4954553;28;46064;-65
2023/05/30 13:25:26;;;;;;;3.80;1.98;;;26.20;29.30;;;;;;4928334;28;45313;-63
2023/05/30 13:27:52;;;;;;;3.80;1.63;;;26.20;29.50;;;;;;4946265;28;45403;-61
2023/05/30 13:30:18;;;;;;;3.03;1.65;;;26.20;29.30;;;;;;4939258;28;45427;-62
2023/05/30 13:32:43;;;;;;;4.72;1.70;;;26.20;29.30;;;;;;4934527;28;45764;-61
2023/05/30 13:35:09;;;;;;;4.65;1.85;;;26.30;29.40;;;;;;4950964;28;45387;-65
2023/05/30 13:37:34;;;;;;;5.72;1.75;;;26.20;29.30;;;;;;4950622;28;45618;-61
2023/05/30 13:40:00;;;;;;;3.67;1.55;;;26.20;29.30;;;;;;4952564;28;45344;-62
2023/05/30 13:42:26;;;;;;;3.05;1.30;;;26.20;29.50;;;;;;4944756;28;45581;-60
2023/05/30 13:44:51;;;;;;;3.55;1.60;;;26.20;29.30;;;;;;4949973;28;45279;-61
2023/05/30 13:47:17;;;;;;;3.60;1.70;;;26.30;29.30;;;;;;4953122;28;46135;-61
2023/05/30 13:49:43;;;;;;;2.67;1.30;;;26.30;29.30;;;;;;4940853;28;45478;-63
2023/05/30 13:52:09;;;;;;;6.70;1.50;;;26.30;29.20;;;;;;4925246;28;45921;-62
2023/05/30 13:54:40;;;;;;;4.43;1.75;;;26.40;29.00;;;;;;4945835;28;45518;-64
2023/05/30 13:57:07;;;;;;;2.92;1.58;;;26.40;29.00;;;;;;4947470;28;45246;-64
2023/05/30 13:59:32;;;;;;;5.05;1.70;;;26.40;28.80;;;;;;4930014;28;45275;-64
2023/05/30 14:02:01;;;;;;;6.05;1.70;;;26.40;28.60;;;;;;4930007;28;46127;-66
2023/05/30 14:04:27;;;;;;;7.35;1.77;;;26.40;28.50;;;;;;4943917;28;45488;-64
2023/05/30 14:06:54;;;;;;;2.70;1.67;;;26.30;28.50;;;;;;4942862;28;44667;-64
2023/05/30 14:09:19;;;;;;;4.70;1.30;;;26.40;28.50;;;;;;4947097;28;45674;-63
2023/05/30 14:11:47;;;;;;;2.50;1.48;;;26.40;28.50;;;;;;4938954;28;46962;-63
2023/05/30 14:14:14;;;;;;;3.42;1.55;;;26.40;28.40;;;;;;4953817;28;45199;-63
2023/05/30 14:16:39;;;;;;;5.00;1.70;;;26.40;28.30;;;;;;4924964;28;45365;-64
2023/05/30 14:19:09;;;;;;;3.03;1.17;;;26.40;28.40;;;;;;4943321;28;45463;-64
2023/05/30 14:21:36;;;;;;;1.67;1.38;;;26.40;28.50;;;;;;4931004;28;46008;-64
2023/05/30 14:24:01;;;;;;;2.42;1.33;;;26.50;28.60;;;;;;4950273;28;45454;-64
2023/05/30 14:26:28;;;;;;;5.93;1.80;;;26.50;28.60;;;;;;4930994;28;45742;-63
2023/05/30 14:28:53;;;;;;;3.70;1.55;;;26.50;28.40;;;;;;4944660;28;45967;-59
2023/05/30 14:31:19;;;;;;;3.53;1.77;;;26.50;28.60;;;;;;4937461;28;46032;-59
2023/05/30 14:33:45;;;;;;;6.65;1.40;;;26.50;28.50;;;;;;4949080;28;44990;-61
2023/05/30 14:36:10;;;;;;;3.47;1.48;;;26.50;28.60;;;;;;4946219;28;45576;-61
2023/05/30 14:38:36;;;;;;;4.55;2.00;;;26.50;28.50;;;;;;4953359;28;45443;-63
2023/05/30 14:41:01;;;;;;;3.42;1.65;;;26.50;28.50;;;;;;4943480;28;47030;-64
2023/05/30 14:43:27;;;;;;;3.03;1.70;;;26.50;28.60;;;;;;4923905;28;45405;-62
2023/05/30 14:45:52;;;;;;;3.83;1.77;;;26.50;28.60;;;;;;4946191;28;45736;-62
2023/05/30 14:48:18;;;;;;;3.05;1.65;;;26.50;28.60;;;;;;4929460;28;45305;-62
2023/05/30 14:50:43;;;;;;;3.70;1.83;;;26.60;28.60;;;;;;4945117;28;46353;-61
2023/05/30 14:53:09;;;;;;;2.55;1.70;;;26.60;28.60;;;;;;4954772;28;45210;-62
2023/05/30 14:55:35;;;;;;;4.68;1.33;;;26.60;28.70;;;;;;4950003;28;46289;-63
2023/05/30 14:58:01;;;;;;;4.68;1.45;;;26.60;28.70;;;;;;4958112;28;46281;-63
2023/05/30 15:00:27;;;;;;;3.20;1.50;;;26.60;28.60;;;;;;4939892;28;45369;-65
2023/05/30 15:02:52;;;;;;;3.13;1.70;;;26.60;28.70;;;;;;4942755;28;45910;-63
2023/05/30 15:05:18;;;;;;;3.58;1.40;;;26.60;28.60;;;;;;4946622;28;45222;-66
2023/05/30 15:07:44;;;;;;;1.73;1.40;;;26.70;28.60;;;;;;4964315;28;45323;-63
2023/05/30 15:10:09;;;;;;;4.90;1.40;;;26.60;28.60;;;;;;4934673;28;45449;-65
2023/05/30 15:12:35;;;;;;;4.90;1.50;;;26.60;28.50;;;;;;4944488;28;44687;-63
2023/05/30 15:15:01;;;;;;;2.58;1.33;;;26.60;28.50;;;;;;4938433;28;45243;-63
2023/05/30 15:17:27;;;;;;;9.20;2.00;;;26.60;28.40;;;;;;4948839;28;45745;-63
2023/05/30 15:19:53;;;;;;;1.98;1.50;;;26.70;28.50;;;;;;4950408;28;46001;-66
2023/05/30 15:22:19;;;;;;;4.25;1.50;;;26.70;28.40;;;;;;4951850;28;45073;-67
2023/05/30 15:24:45;;;;;;;5.40;1.50;;;26.70;28.50;;;;;;4931544;28;45549;-63
2023/05/30 15:27:11;;;;;;;3.22;1.60;;;26.70;28.60;;;;;;4944722;28;44795;-64
2023/05/30 15:29:37;;;;;;;3.90;1.80;;;26.70;28.60;;;;;;4935921;28;45505;-65
2023/05/30 15:32:03;;;;;;;5.30;2.03;;;26.70;28.60;;;;;;4942883;28;45305;-63
2023/05/30 15:34:29;;;;;;;2.53;1.58;;;26.70;28.70;;;;;;4950776;28;45380;-62
2023/05/30 15:36:55;;;;;;;4.68;1.70;;;26.70;28.70;;;;;;4926613;28;45399;-64
2023/05/30 15:39:21;;;;;;;3.00;2.00;;;26.70;28.70;;;;;;4952058;28;45934;-65
2023/05/30 15:41:47;;;;;;;4.93;1.92;;;26.60;28.60;;;;;;4941361;28;45579;-63
2023/05/30 15:44:12;;;;;;;5.03;1.70;;;26.60;28.80;;;;;;4932947;28;45301;-62
2023/05/30 15:46:39;;;;;;;3.45;1.63;;;26.70;28.90;;;;;;4939996;28;44670;-63